Time;durP1;ratioP1;P1;durP2;ratioP2;P2;SDS_P1;SDS_P2;PMS_P1;PMS_P2;Temp;Humidity;BMP_temperature;BMP_pressure;BME280_temperature;BME280_humidity;BME280_pressure;Samples;Min_cycle;Max_cycle;Signal;HPM_P1;HPM_P2
2022/12/18 00:01:05;;;;;;;67.50;30.58;;;3.30;99.90;;;;;;5076532;28;20456;-78
2022/12/18 00:03:35;;;;;;;58.00;26.88;;;3.30;99.90;;;;;;5075694;28;20139;-77
2022/12/18 00:06:02;;;;;;;60.05;25.75;;;3.30;99.90;;;;;;5076588;28;20028;-76
2022/12/18 00:08:28;;;;;;;61.25;28.85;;;3.30;99.90;;;;;;5075203;28;20115;-77
2022/12/18 00:10:54;;;;;;;57.35;27.52;;;3.20;99.90;;;;;;5077416;28;20066;-79
2022/12/18 00:13:20;;;;;;;60.33;27.15;;;3.20;99.90;;;;;;5087402;28;20020;-79
2022/12/18 00:15:46;;;;;;;58.60;29.17;;;3.20;99.90;;;;;;5076311;28;20042;-77
2022/12/18 00:18:12;;;;;;;66.88;32.55;;;3.20;99.90;;;;;;5090164;28;20044;-77
2022/12/18 00:20:39;;;;;;;61.05;28.67;;;3.20;99.90;;;;;;5096367;28;20029;-79
2022/12/18 00:23:06;;;;;;;61.90;27.48;;;3.30;99.90;;;;;;5096476;28;20113;-78
2022/12/18 00:25:36;;;;;;;59.25;28.02;;;3.30;99.90;;;;;;5096886;28;20035;-79
2022/12/18 00:28:03;;;;;;;58.33;28.15;;;3.30;99.90;;;;;;5096559;28;20145;-77
2022/12/18 00:30:29;;;;;;;57.47;26.30;;;3.30;99.90;;;;;;5078726;28;20105;-79
2022/12/18 00:32:55;;;;;;;55.92;25.95;;;3.30;99.90;;;;;;5076087;28;20529;-80
2022/12/18 00:35:21;;;;;;;63.67;29.48;;;3.30;99.90;;;;;;5074949;28;20027;-78
2022/12/18 00:37:47;;;;;;;52.42;24.63;;;3.30;99.90;;;;;;5075662;28;20028;-77
2022/12/18 00:40:14;;;;;;;56.72;25.70;;;3.30;99.90;;;;;;5074627;28;20078;-79
2022/12/18 00:42:58;;;;;;;65.53;29.13;;;3.30;99.90;;;;;;5076183;28;20021;-77
2022/12/18 00:45:29;;;;;;;59.05;25.25;;;3.30;99.90;;;;;;5074744;28;20024;-79
2022/12/18 00:47:55;;;;;;;56.85;26.73;;;3.30;99.90;;;;;;5075790;28;20142;-77
2022/12/18 00:50:21;;;;;;;65.82;31.17;;;3.30;99.90;;;;;;5075320;28;20025;-78
2022/12/18 00:52:47;;;;;;;48.30;23.30;;;3.30;99.90;;;;;;5075969;28;20102;-77
2022/12/18 00:55:14;;;;;;;52.75;23.70;;;3.30;99.90;;;;;;5075979;28;20052;-78
2022/12/18 00:57:40;;;;;;;49.20;23.55;;;3.20;99.90;;;;;;5073343;28;20038;-77
2022/12/18 01:00:10;;;;;;;50.88;23.73;;;3.20;99.90;;;;;;5075759;28;20017;-77
2022/12/18 01:02:36;;;;;;;54.55;24.02;;;3.20;99.90;;;;;;5075545;28;20075;-77
2022/12/18 01:05:02;;;;;;;59.75;27.27;;;3.20;99.90;;;;;;5075717;28;20055;-78
2022/12/18 01:07:28;;;;;;;61.42;26.15;;;3.20;99.90;;;;;;5073522;28;20043;-78
2022/12/18 01:09:53;;;;;;;55.97;25.60;;;3.20;99.90;;;;;;5074836;28;20443;-79
2022/12/18 01:12:19;;;;;;;61.08;27.80;;;3.20;99.90;;;;;;5074938;28;20032;-77
2022/12/18 01:14:45;;;;;;;53.65;25.30;;;3.20;99.90;;;;;;5074633;28;20093;-77
2022/12/18 01:17:11;;;;;;;61.45;26.30;;;3.20;99.90;;;;;;5074240;28;20059;-77
2022/12/18 01:19:36;;;;;;;56.38;25.50;;;3.20;99.90;;;;;;5074447;28;20052;-77
2022/12/18 01:22:03;;;;;;;57.22;25.83;;;3.20;99.90;;;;;;5074378;28;20029;-77
2022/12/18 01:24:28;;;;;;;51.42;24.60;;;3.20;99.90;;;;;;5074266;28;20025;-77
2022/12/18 01:26:54;;;;;;;59.58;26.08;;;3.10;99.90;;;;;;5074325;28;20016;-77
2022/12/18 01:29:20;;;;;;;61.78;26.83;;;3.10;99.90;;;;;;5073180;28;20060;-77
2022/12/18 01:31:46;;;;;;;68.03;30.10;;;3.10;99.90;;;;;;5074059;28;20024;-77
2022/12/18 01:34:11;;;;;;;90.10;35.95;;;3.10;99.90;;;;;;5072696;28;20029;-76
2022/12/18 01:36:38;;;;;;;80.55;34.70;;;3.10;99.90;;;;;;5074218;28;20024;-77
2022/12/18 01:39:13;;;;;;;78.10;33.65;;;3.10;99.90;;;;;;5072330;28;20091;-76
2022/12/18 01:45:00;;;;;;;75.28;32.08;;;3.10;99.90;;;;;;5074564;28;20027;-79
2022/12/18 01:47:41;;;;;;;70.65;32.03;;;3.10;99.90;;;;;;5053331;28;20021;-77
2022/12/18 01:50:20;;;;;;;75.45;32.17;;;3.00;99.90;;;;;;5053439;28;20031;-77
2022/12/18 01:53:14;;;;;;;85.05;37.75;;;3.00;99.90;;;;;;5054767;28;20017;-75
2022/12/18 01:55:46;;;;;;;73.05;33.55;;;3.00;99.90;;;;;;5051228;28;20032;-78
2022/12/18 01:58:12;;;;;;;;;;;3.00;99.90;;;;;;5066027;28;20129;-77
2022/12/18 02:00:37;;;;;;;57.40;26.92;;;3.00;99.90;;;;;;5073692;28;19999;-77
2022/12/18 02:03:03;;;;;;;59.08;27.95;;;3.00;99.90;;;;;;5073222;28;20040;-76
2022/12/18 02:05:57;;;;;;;54.35;25.80;;;3.00;99.90;;;;;;5073691;28;20016;-76
2022/12/18 02:08:23;;;;;;;55.35;26.38;;;3.10;99.90;;;;;;5067587;28;20101;-77
2022/12/18 02:11:03;;;;;;;52.70;25.20;;;3.10;99.90;;;;;;5073666;28;20460;-78
2022/12/18 02:13:55;;;;;;;46.95;23.13;;;3.00;99.90;;;;;;5073563;28;20021;-77
2022/12/18 02:16:27;;;;;;;49.78;23.98;;;3.00;99.90;;;;;;5062449;28;20063;-76
2022/12/18 02:19:01;;;;;;;51.75;24.95;;;3.00;99.90;;;;;;5073439;28;20037;-77
2022/12/18 02:21:35;;;;;;;49.75;23.98;;;3.00;99.90;;;;;;5073395;28;20475;-77
2022/12/18 02:24:22;;;;;;;45.50;22.10;;;3.00;99.90;;;;;;5073421;28;20029;-77
2022/12/18 02:26:51;;;;;;;51.20;23.33;;;3.00;99.90;;;;;;5072272;28;20051;-76
2022/12/18 02:29:24;;;;;;;53.97;25.55;;;3.00;99.90;;;;;;5072830;28;20487;-77
2022/12/18 02:32:00;;;;;;;52.65;24.85;;;3.00;99.90;;;;;;5073425;28;20032;-77
2022/12/18 02:34:33;;;;;;;53.28;25.45;;;2.90;99.90;;;;;;5072931;28;20411;-77
2022/12/18 02:37:02;;;;;;;51.40;25.13;;;2.90;99.90;;;;;;5067797;28;20030;-76
2022/12/18 02:39:30;;;;;;;52.30;24.80;;;2.90;99.90;;;;;;5067156;28;20023;-77
2022/12/18 02:41:58;;;;;;;49.63;24.27;;;2.80;99.90;;;;;;5071574;28;20030;-77
2022/12/18 02:44:24;;;;;;;52.65;25.10;;;2.80;99.90;;;;;;5073186;28;20028;-76
2022/12/18 02:46:53;;;;;;;52.88;24.33;;;2.80;99.90;;;;;;5073038;28;20357;-77
2022/12/18 02:49:53;;;;;;;51.38;25.13;;;2.70;99.90;;;;;;5072610;28;20398;-78
2022/12/18 02:52:28;;;;;;;51.90;24.58;;;2.80;99.90;;;;;;5069136;28;20460;-77
2022/12/18 02:55:06;;;;;;;56.10;25.98;;;2.70;99.90;;;;;;5073012;28;20099;-77
2022/12/18 02:57:43;;;;;;;54.33;25.33;;;2.70;99.90;;;;;;5072594;28;20059;-77
2022/12/18 03:00:35;;;;;;;53.78;25.73;;;2.70;99.90;;;;;;5073241;28;20017;-77
2022/12/18 03:03:09;;;;;;;51.38;25.52;;;2.70;99.90;;;;;;5034501;28;20128;-77
2022/12/18 03:06:06;;;;;;;68.20;29.33;;;2.80;99.90;;;;;;5067145;28;20356;-77
2022/12/18 03:08:38;;;;;;;71.38;32.35;;;2.70;99.90;;;;;;5072301;28;20040;-76
2022/12/18 03:11:12;;;;;;;65.28;29.67;;;2.70;99.90;;;;;;5071220;28;20035;-77
2022/12/18 03:13:48;;;;;;;75.43;33.33;;;2.80;99.90;;;;;;5072672;28;20487;-77
2022/12/18 03:16:34;;;;;;;90.32;39.53;;;2.70;99.90;;;;;;5072904;28;20455;-76
2022/12/18 03:19:11;;;;;;;69.88;29.63;;;2.70;99.90;;;;;;5068549;28;20379;-76
2022/12/18 03:21:51;;;;;;;59.28;27.13;;;2.60;99.90;;;;;;5072802;28;20032;-77
2022/12/18 03:24:18;;;;;;;62.15;29.52;;;2.60;99.90;;;;;;5076099;28;20063;-78
2022/12/18 03:26:48;;;;;;;57.58;27.38;;;2.60;99.90;;;;;;5076158;28;20021;-77
2022/12/18 03:29:54;;;;;;;66.28;29.67;;;2.70;99.90;;;;;;5076138;28;20127;-78
2022/12/18 03:32:30;;;;;;;59.63;27.98;;;2.70;99.90;;;;;;5053625;28;20094;-76
2022/12/18 03:35:02;;;;;;;62.15;28.70;;;2.70;99.90;;;;;;5077327;28;20047;-77
2022/12/18 03:37:31;;;;;;;61.22;28.45;;;2.80;99.90;;;;;;5076658;28;20040;-78
2022/12/18 03:39:57;;;;;;;61.95;27.60;;;2.70;99.90;;;;;;5076164;28;20033;-77
2022/12/18 03:42:51;;;;;;;52.63;25.75;;;2.70;99.90;;;;;;5076958;28;20453;-77
2022/12/18 03:45:31;;;;;;;56.50;26.02;;;2.60;99.90;;;;;;5076592;28;20413;-76
2022/12/18 03:48:03;;;;;;;53.08;23.05;;;2.60;99.90;;;;;;5075568;28;20027;-77
2022/12/18 03:51:09;;;;;;;55.90;25.27;;;2.50;99.90;;;;;;5076662;28;20017;-78
2022/12/18 03:53:58;;;;;;;58.15;26.80;;;2.40;99.90;;;;;;5073562;28;20059;-77
2022/12/18 03:56:28;;;;;;;53.75;24.63;;;2.40;99.90;;;;;;5076287;28;20040;-76
2022/12/18 03:58:56;;;;;;;57.75;26.92;;;2.30;99.90;;;;;;5070401;28;20520;-76
2022/12/18 04:01:31;;;;;;;55.38;26.20;;;2.30;99.90;;;;;;5074678;28;20112;-76
2022/12/18 04:03:59;;;;;;;60.13;26.40;;;2.30;99.90;;;;;;5075517;28;20028;-77
2022/12/18 04:06:26;;;;;;;58.53;28.30;;;2.30;99.90;;;;;;5075691;28;20498;-76
2022/12/18 04:08:52;;;;;;;58.88;27.10;;;2.30;99.90;;;;;;5075309;28;20341;-77
2022/12/18 04:11:18;;;;;;;61.53;27.45;;;2.30;99.90;;;;;;5074524;28;20070;-78
2022/12/18 04:13:44;;;;;;;60.35;28.25;;;2.30;99.90;;;;;;5074368;28;20016;-76
2022/12/18 04:16:10;;;;;;;62.97;29.83;;;2.40;99.90;;;;;;5073989;28;20039;-77
2022/12/18 04:18:36;;;;;;;66.88;29.83;;;2.40;99.90;;;;;;5075461;28;20033;-76
2022/12/18 04:21:02;;;;;;;72.28;32.63;;;2.40;99.90;;;;;;5074161;28;20032;-78
2022/12/18 04:23:28;;;;;;;81.18;34.17;;;2.30;99.90;;;;;;5075748;28;20077;-76
2022/12/18 04:25:54;;;;;;;73.40;33.45;;;2.30;99.90;;;;;;5074191;28;20111;-77
2022/12/18 04:28:20;;;;;;;74.95;31.80;;;2.30;99.90;;;;;;5075147;28;20032;-78
2022/12/18 04:30:49;;;;;;;73.00;32.53;;;2.40;99.90;;;;;;5075854;28;20028;-78
2022/12/18 04:33:18;;;;;;;65.72;30.25;;;2.40;99.90;;;;;;5074234;28;20070;-76
2022/12/18 04:35:44;;;;;;;70.30;30.67;;;2.30;99.90;;;;;;5075061;28;20023;-76
2022/12/18 04:38:10;;;;;;;77.03;31.73;;;2.30;99.90;;;;;;5075449;28;20449;-77
2022/12/18 04:40:37;;;;;;;71.47;29.83;;;2.30;99.90;;;;;;5074979;28;20020;-78
2022/12/18 04:43:03;;;;;;;57.50;27.00;;;2.20;99.90;;;;;;5075134;28;20034;-76
2022/12/18 04:45:30;;;;;;;64.28;28.45;;;2.10;99.90;;;;;;5074718;28;20033;-76
2022/12/18 04:48:01;;;;;;;78.72;32.45;;;2.10;99.90;;;;;;5073787;28;20029;-76
2022/12/18 04:50:27;;;;;;;74.93;33.23;;;2.10;99.90;;;;;;5075067;28;20115;-77
2022/12/18 04:52:54;;;;;;;75.88;32.72;;;2.20;99.90;;;;;;5074816;28;20412;-77
2022/12/18 04:55:20;;;;;;;83.22;35.78;;;2.10;99.90;;;;;;5074570;28;20097;-76
2022/12/18 04:57:46;;;;;;;83.47;34.50;;;2.10;99.90;;;;;;5074875;28;20409;-76
2022/12/18 05:00:12;;;;;;;80.80;32.53;;;2.10;99.90;;;;;;5074579;28;20021;-76
2022/12/18 05:02:38;;;;;;;92.95;35.10;;;2.00;99.90;;;;;;5073634;28;20040;-77
2022/12/18 05:05:04;;;;;;;87.15;34.75;;;2.00;99.90;;;;;;5074549;28;20033;-76
2022/12/18 05:07:30;;;;;;;69.90;29.75;;;2.00;99.90;;;;;;5073377;28;20025;-76
2022/12/18 05:09:56;;;;;;;72.85;32.03;;;2.00;99.90;;;;;;5074622;28;20017;-77
2022/12/18 05:12:24;;;;;;;88.38;35.67;;;1.90;99.90;;;;;;5074530;28;20025;-76
2022/12/18 05:14:50;;;;;;;86.50;36.22;;;1.90;99.90;;;;;;5074640;28;20142;-76
2022/12/18 05:17:16;;;;;;;86.57;37.00;;;1.90;99.90;;;;;;5073933;28;20020;-76
2022/12/18 05:19:42;;;;;;;85.60;36.35;;;1.90;99.90;;;;;;5074355;28;20016;-76
2022/12/18 05:22:08;;;;;;;76.45;33.05;;;1.90;99.90;;;;;;5074131;28;20028;-76
2022/12/18 05:24:34;;;;;;;68.03;31.40;;;1.80;99.90;;;;;;5074092;28;20043;-77
2022/12/18 05:27:00;;;;;;;75.50;33.75;;;1.80;99.90;;;;;;5073046;28;20451;-76
2022/12/18 05:29:26;;;;;;;69.95;32.63;;;1.80;99.90;;;;;;5074407;28;20012;-76
2022/12/18 05:31:51;;;;;;;71.68;33.70;;;1.60;99.90;;;;;;5072808;28;20090;-77
2022/12/18 05:34:17;;;;;;;73.65;33.30;;;1.70;99.90;;;;;;5073976;28;20036;-77
2022/12/18 05:36:43;;;;;;;76.20;34.72;;;1.60;99.90;;;;;;5074016;28;20501;-78
2022/12/18 05:39:09;;;;;;;69.93;33.97;;;1.50;99.90;;;;;;5074096;28;20028;-76
2022/12/18 05:41:35;;;;;;;76.90;34.22;;;1.40;99.90;;;;;;5074462;28;20048;-76
2022/12/18 05:44:00;;;;;;;79.45;33.92;;;1.40;99.90;;;;;;5074575;28;20025;-77
2022/12/18 05:46:26;;;;;;;87.53;37.47;;;1.30;99.90;;;;;;5074729;28;20025;-77
2022/12/18 05:48:52;;;;;;;76.15;35.08;;;1.30;99.90;;;;;;5074667;28;20056;-76
2022/12/18 05:51:21;;;;;;;80.50;37.75;;;1.30;99.90;;;;;;5074503;28;20036;-77
2022/12/18 05:53:48;;;;;;;78.68;36.58;;;1.20;99.90;;;;;;5074475;28;20048;-77
2022/12/18 05:56:19;;;;;;;81.30;34.53;;;1.20;99.90;;;;;;5073763;28;20021;-76
2022/12/18 05:58:46;;;;;;;82.90;36.70;;;1.10;99.90;;;;;;5073696;28;20017;-77
2022/12/18 06:01:17;;;;;;;84.22;36.78;;;1.10;99.90;;;;;;5073157;28;20036;-77
2022/12/18 06:03:44;;;;;;;82.10;38.17;;;1.00;99.90;;;;;;5072600;28;20040;-78
2022/12/18 06:06:17;;;;;;;93.15;39.15;;;1.00;99.90;;;;;;5073172;28;20077;-77
2022/12/18 06:08:43;;;;;;;83.70;38.85;;;0.90;99.90;;;;;;5073348;28;20371;-76
2022/12/18 06:11:09;;;;;;;99.38;44.58;;;0.90;99.90;;;;;;5073132;28;20024;-78
2022/12/18 06:13:35;;;;;;;111.68;47.83;;;0.90;99.90;;;;;;5073324;28;20032;-78
2022/12/18 06:16:05;;;;;;;143.93;62.10;;;0.90;99.90;;;;;;5073256;28;20021;-76
2022/12/18 06:18:32;;;;;;;180.45;77.07;;;0.90;99.90;;;;;;5072169;28;20032;-77
2022/12/18 06:20:59;;;;;;;151.90;65.18;;;0.90;99.90;;;;;;5073072;28;20042;-76
2022/12/18 06:23:26;;;;;;;170.68;71.40;;;0.90;99.90;;;;;;5071965;28;20064;-77
2022/12/18 06:25:52;;;;;;;137.55;61.03;;;0.90;99.90;;;;;;5073274;28;20027;-77
2022/12/18 06:28:18;;;;;;;123.30;57.22;;;0.90;99.90;;;;;;5072643;28;20059;-78
2022/12/18 06:30:45;;;;;;;117.20;54.33;;;0.90;99.90;;;;;;5072992;28;20051;-78
2022/12/18 06:33:11;;;;;;;139.80;61.13;;;0.90;99.90;;;;;;5072766;28;20099;-78
2022/12/18 06:35:37;;;;;;;152.52;68.03;;;0.90;99.90;;;;;;5071549;28;20107;-77
2022/12/18 06:38:03;;;;;;;167.40;71.97;;;0.90;99.90;;;;;;5073003;28;20052;-76
2022/12/18 06:40:29;;;;;;;190.85;80.00;;;0.90;99.90;;;;;;5071621;28;20366;-78
2022/12/18 06:42:55;;;;;;;169.25;71.30;;;0.90;99.90;;;;;;5071827;28;20449;-77
2022/12/18 06:45:21;;;;;;;146.80;63.60;;;0.90;99.90;;;;;;5071331;28;20112;-77
2022/12/18 06:47:46;;;;;;;128.13;59.50;;;0.90;99.90;;;;;;5072942;28;20149;-77
2022/12/18 06:50:13;;;;;;;136.07;59.00;;;0.80;99.90;;;;;;5072817;28;20047;-78
2022/12/18 06:52:40;;;;;;;142.45;61.58;;;0.80;99.90;;;;;;5072938;28;20047;-77
2022/12/18 06:55:09;;;;;;;130.50;55.53;;;0.80;99.90;;;;;;5071755;28;20371;-77
2022/12/18 06:57:36;;;;;;;119.28;54.45;;;0.80;99.90;;;;;;5066549;28;20099;-78
2022/12/18 07:00:05;;;;;;;127.97;56.13;;;0.90;99.90;;;;;;5072738;28;20352;-78
2022/12/18 07:02:30;;;;;;;117.97;52.78;;;1.20;99.90;;;;;;5071068;28;20082;-77
2022/12/18 07:04:56;;;;;;;108.85;50.15;;;1.40;99.90;;;;;;5070950;28;20370;-78
2022/12/18 07:07:22;;;;;;;106.20;48.53;;;1.80;99.90;;;;;;5072589;28;20020;-79
2022/12/18 07:09:50;;;;;;;122.03;51.58;;;2.00;99.90;;;;;;5071769;28;20071;-78
2022/12/18 07:12:15;;;;;;;121.88;59.60;;;2.10;99.90;;;;;;5072984;28;20383;-77
2022/12/18 07:14:41;;;;;;;143.27;64.82;;;2.20;99.90;;;;;;5073397;28;20031;-79
2022/12/18 07:17:07;;;;;;;155.13;73.25;;;2.10;99.90;;;;;;5071513;28;20103;-78
2022/12/18 07:19:33;;;;;;;112.57;48.90;;;2.20;99.90;;;;;;5071520;28;20413;-78
2022/12/18 07:21:59;;;;;;;122.55;54.50;;;2.30;99.90;;;;;;5072591;28;20020;-77
2022/12/18 07:24:24;;;;;;;131.23;54.42;;;2.40;99.90;;;;;;5072885;28;20031;-77
2022/12/18 07:26:50;;;;;;;123.15;50.72;;;2.50;99.90;;;;;;5073039;28;20453;-78
2022/12/18 07:29:16;;;;;;;130.68;54.38;;;2.40;99.90;;;;;;5072269;28;20467;-77
2022/12/18 07:31:42;;;;;;;134.52;56.50;;;2.40;99.90;;;;;;5073389;28;20448;-78
2022/12/18 07:34:14;;;;;;;137.75;59.95;;;2.30;99.90;;;;;;5073349;28;20111;-78
2022/12/18 07:36:41;;;;;;;117.95;53.78;;;2.20;99.90;;;;;;5073453;28;20024;-78
2022/12/18 07:39:07;;;;;;;124.32;51.83;;;2.20;99.90;;;;;;5073388;28;20078;-79
2022/12/18 07:41:33;;;;;;;94.07;44.90;;;2.30;99.90;;;;;;5071934;28;20024;-79
2022/12/18 07:43:58;;;;;;;98.15;45.25;;;2.40;99.90;;;;;;5071765;28;20128;-79
2022/12/18 07:46:24;;;;;;;118.13;54.05;;;2.50;99.90;;;;;;5073175;28;20025;-80
2022/12/18 07:48:50;;;;;;;101.07;45.97;;;2.70;99.90;;;;;;5073299;28;20036;-77
2022/12/18 07:51:17;;;;;;;97.18;42.95;;;2.70;99.90;;;;;;5073317;28;20360;-78
2022/12/18 07:53:43;;;;;;;82.43;36.63;;;2.70;99.90;;;;;;5073219;28;20059;-79
2022/12/18 07:56:11;;;;;;;82.35;36.55;;;2.70;99.90;;;;;;5073383;28;20052;-78
2022/12/18 07:58:38;;;;;;;91.80;38.97;;;2.70;99.90;;;;;;5072776;28;20021;-78
2022/12/18 08:01:05;;;;;;;99.97;40.05;;;2.50;99.90;;;;;;5073033;28;20024;-80
2022/12/18 08:03:31;;;;;;;95.95;40.72;;;2.60;99.90;;;;;;5072783;28;20028;-79
2022/12/18 08:06:06;;;;;;;89.80;41.78;;;2.60;99.90;;;;;;5072756;28;20161;-80
2022/12/18 08:08:33;;;;;;;93.60;45.28;;;2.90;99.90;;;;;;5074723;28;20443;-80
2022/12/18 08:10:59;;;;;;;85.30;39.65;;;2.70;99.90;;;;;;5076436;28;20028;-79
2022/12/18 08:13:25;;;;;;;97.78;41.58;;;2.60;99.90;;;;;;5076445;28;20020;-81
2022/12/18 08:16:21;;;;;;;93.28;43.63;;;2.70;99.90;;;;;;5075172;28;20466;-78
2022/12/18 08:18:47;;;;;;;87.07;42.30;;;2.90;99.90;;;;;;5033706;28;20046;-78
2022/12/18 08:21:20;;;;;;;98.00;46.22;;;2.70;99.90;;;;;;5034139;28;20025;-79
2022/12/18 08:23:46;;;;;;;91.63;43.45;;;2.60;99.90;;;;;;5051206;28;20048;-78
2022/12/18 08:26:12;;;;;;;78.18;35.58;;;2.50;99.90;;;;;;5053880;28;20017;-78
2022/12/18 08:28:39;;;;;;;71.40;32.28;;;2.50;99.90;;;;;;5037242;28;20163;-78
2022/12/18 08:31:05;;;;;;;82.57;36.65;;;2.50;99.90;;;;;;5043861;28;20041;-78
2022/12/18 08:33:32;;;;;;;87.72;41.05;;;2.60;99.90;;;;;;5012062;28;20021;-79
2022/12/18 08:36:01;;;;;;;105.80;46.50;;;2.70;99.90;;;;;;5026244;28;20180;-77
2022/12/18 08:38:27;;;;;;;76.97;34.72;;;2.70;99.90;;;;;;5007858;28;20048;-78
2022/12/18 08:41:02;;;;;;;105.10;49.10;;;2.80;99.90;;;;;;5022138;28;20084;-79
2022/12/18 08:46:20;;;;;;;84.05;39.08;;;2.90;99.90;;;;;;5033065;28;20789;-78
2022/12/18 08:48:46;;;;;;;90.60;42.25;;;3.00;99.90;;;;;;5033590;28;20075;-78
2022/12/18 08:51:12;;;;;;;100.15;42.78;;;3.00;99.90;;;;;;5033666;28;20057;-79
2022/12/18 08:53:38;;;;;;;148.00;61.70;;;3.00;99.90;;;;;;5033386;28;20535;-79
2022/12/18 08:56:05;;;;;;;165.45;69.43;;;3.00;99.90;;;;;;5089070;28;20100;-79
2022/12/18 08:58:31;;;;;;;117.05;52.03;;;3.20;99.90;;;;;;5089135;28;20021;-79
2022/12/18 09:01:01;;;;;;;83.40;36.85;;;3.20;99.90;;;;;;5073977;28;20158;-78
2022/12/18 09:03:27;;;;;;;153.30;70.78;;;3.20;99.90;;;;;;5073260;28;20048;-79
2022/12/18 09:05:53;;;;;;;126.75;55.25;;;3.20;99.90;;;;;;5074862;28;20097;-81
2022/12/18 09:08:19;;;;;;;94.78;44.35;;;3.30;99.90;;;;;;5075544;28;20477;-80
2022/12/18 09:10:46;;;;;;;80.55;37.75;;;3.30;99.90;;;;;;5075820;28;20410;-80
2022/12/18 09:13:12;;;;;;;90.93;40.97;;;3.10;99.90;;;;;;5073320;28;20024;-79
2022/12/18 09:15:56;;;;;;;97.47;43.63;;;3.10;99.90;;;;;;5072952;28;20380;-79
2022/12/18 09:18:23;;;;;;;120.50;50.78;;;3.10;99.90;;;;;;5071964;28;20072;-80
2022/12/18 09:20:51;;;;;;;117.07;50.05;;;3.00;99.90;;;;;;5073668;28;20024;-80
2022/12/18 09:23:17;;;;;;;136.55;57.85;;;3.00;99.90;;;;;;5073620;28;20036;-80
2022/12/18 09:25:43;;;;;;;124.20;57.28;;;3.10;99.90;;;;;;5072453;28;20035;-80
2022/12/18 09:28:14;;;;;;;93.20;41.88;;;3.20;99.90;;;;;;5073259;28;20107;-78
2022/12/18 09:30:48;;;;;;;114.43;46.88;;;3.20;99.90;;;;;;5069362;28;20420;-80
2022/12/18 09:33:15;;;;;;;117.00;44.53;;;3.80;99.90;;;;;;5072482;28;20024;-79
2022/12/18 09:35:42;;;;;;;114.97;43.78;;;4.00;99.90;;;;;;5073314;28;20024;-79
2022/12/18 09:38:14;;;;;;;136.05;52.83;;;3.60;99.90;;;;;;5073494;28;20043;-80
2022/12/18 09:41:03;;;;;;;113.60;47.65;;;3.90;99.90;;;;;;5074590;28;20020;-79
2022/12/18 09:43:51;;;;;;;98.93;45.38;;;3.70;99.90;;;;;;5072918;28;20040;-79
2022/12/18 09:46:27;;;;;;;76.97;36.67;;;3.90;99.90;;;;;;5068134;28;20035;-79
2022/12/18 09:48:57;;;;;;;80.47;38.38;;;4.40;99.90;;;;;;5073165;28;20371;-79
2022/12/18 09:51:52;;;;;;;95.97;42.00;;;4.70;99.90;;;;;;5073902;28;20466;-79
2022/12/18 09:54:36;;;;;;;93.97;37.70;;;5.50;99.90;;;;;;5085018;28;20089;-78
2022/12/18 09:57:03;;;;;;;76.75;35.63;;;5.80;99.10;;;;;;5073536;28;20035;-79
2022/12/18 09:59:41;;;;;;;79.63;35.15;;;5.80;96.70;;;;;;5073636;28;20024;-78
2022/12/18 10:02:22;;;;;;;68.38;34.17;;;6.50;96.20;;;;;;5071677;28;20031;-79
2022/12/18 10:05:10;;;;;;;90.28;43.80;;;6.90;94.70;;;;;;5071934;28;20055;-80
2022/12/18 10:08:17;;;;;;;76.25;36.30;;;7.20;92.50;;;;;;5067488;28;20023;-79
2022/12/18 10:10:57;;;;;;;143.18;65.25;;;6.70;91.30;;;;;;5044301;28;20074;-78
2022/12/18 10:13:41;;;;;;;87.32;43.75;;;6.20;92.30;;;;;;5067011;28;20033;-79
2022/12/18 10:16:17;;;;;;;98.07;49.67;;;6.20;93.00;;;;;;5062405;28;20426;-79
2022/12/18 10:18:52;;;;;;;92.65;43.90;;;5.80;92.60;;;;;;5073750;28;20421;-79
2022/12/18 10:21:26;;;;;;;74.90;35.65;;;6.00;92.50;;;;;;5073989;28;20391;-78
2022/12/18 10:24:32;;;;;;;74.30;36.22;;;7.20;92.30;;;;;;5073127;28;20034;-79
2022/12/18 10:27:21;;;;;;;89.80;41.72;;;7.50;86.30;;;;;;5080885;28;20023;-78
2022/12/18 10:29:47;;;;;;;73.40;36.08;;;8.00;87.30;;;;;;5072805;28;20024;-78
2022/12/18 10:32:22;;;;;;;78.03;38.10;;;8.40;83.50;;;;;;5072097;28;20028;-78
2022/12/18 10:34:50;;;;;;;74.70;36.80;;;8.80;82.30;;;;;;5072603;28;20171;-78
2022/12/18 10:37:18;;;;;;;71.22;35.33;;;8.80;78.50;;;;;;5072209;28;20027;-77
2022/12/18 10:39:45;;;;;;;68.53;34.53;;;7.70;79.70;;;;;;5071350;28;20074;-78
2022/12/18 10:42:17;;;;;;;63.60;33.25;;;7.40;83.60;;;;;;5072558;28;20016;-79
2022/12/18 10:44:43;;;;;;;;;;;8.40;84.50;;;;;;5073297;28;20441;-78
2022/12/18 10:47:14;;;;;;;61.78;31.48;;;8.70;80.20;;;;;;5071327;28;19932;-77
2022/12/18 10:49:52;;;;;;;82.13;39.80;;;8.80;77.80;;;;;;5073505;28;20059;-77
2022/12/18 10:52:24;;;;;;;63.88;33.45;;;8.80;77.70;;;;;;5073006;28;20020;-79
2022/12/18 10:54:59;;;;;;;66.60;33.20;;;9.00;77.00;;;;;;5072512;28;20016;-77
2022/12/18 10:57:41;;;;;;;60.15;30.10;;;9.20;75.60;;;;;;5081679;28;20039;-78
2022/12/18 11:00:28;;;;;;;71.72;35.55;;;8.30;75.40;;;;;;5072605;28;20352;-78
2022/12/18 11:02:55;;;;;;;72.00;36.90;;;7.40;78.70;;;;;;5072889;28;20035;-77
2022/12/18 11:05:33;;;;;;;83.28;39.67;;;6.70;81.60;;;;;;5071878;28;20340;-77
2022/12/18 11:08:00;;;;;;;75.68;35.70;;;6.20;84.00;;;;;;5071436;28;20119;-77
2022/12/18 11:10:37;;;;;;;67.70;33.53;;;5.80;87.00;;;;;;5074101;28;20020;-79
2022/12/18 11:13:21;;;;;;;64.78;32.15;;;6.60;85.60;;;;;;5053064;28;20079;-78
2022/12/18 11:15:48;;;;;;;72.63;33.88;;;7.20;81.10;;;;;;5062628;28;20103;-79
2022/12/18 11:18:35;;;;;;;70.57;35.08;;;7.00;83.00;;;;;;5072562;28;20167;-79
2022/12/18 11:21:12;;;;;;;71.68;35.13;;;6.70;86.00;;;;;;5065868;28;20028;-78
2022/12/18 11:23:55;;;;;;;77.70;36.22;;;6.10;86.20;;;;;;5072380;28;20055;-78
2022/12/18 11:26:31;;;;;;;86.95;41.60;;;5.50;87.60;;;;;;5073158;28;20146;-79
2022/12/18 11:29:16;;;;;;;72.13;35.35;;;6.50;87.10;;;;;;5072277;28;20460;-77
2022/12/18 11:31:42;;;;;;;67.55;32.47;;;5.90;86.70;;;;;;5072662;28;20027;-77
2022/12/18 11:34:14;;;;;;;75.82;36.60;;;5.40;90.30;;;;;;5072437;28;20028;-76
2022/12/18 11:36:45;;;;;;;;;;;5.10;91.30;;;;;;5072985;28;20086;-77
2022/12/18 11:40:01;;;;;;;67.03;31.38;;;5.20;93.60;;;;;;5073015;28;19954;-78
2022/12/18 11:42:51;;;;;;;74.15;35.15;;;5.00;93.20;;;;;;5052549;28;20456;-78
2022/12/18 11:45:28;;;;;;;60.53;30.52;;;5.10;94.60;;;;;;5075665;28;20032;-79
2022/12/18 11:48:32;;;;;;;84.72;39.42;;;4.90;94.70;;;;;;5076713;28;20444;-78
2022/12/18 11:51:02;;;;;;;81.75;37.88;;;5.00;97.10;;;;;;5076682;28;20051;-80
2022/12/18 11:53:30;;;;;;;94.55;41.10;;;4.70;97.60;;;;;;5076396;28;20012;-77
2022/12/18 11:56:20;;;;;;;80.10;38.08;;;4.30;98.10;;;;;;5076556;28;20035;-80
2022/12/18 11:59:08;;;;;;;72.68;35.13;;;4.30;99.90;;;;;;5076553;28;20025;-80
2022/12/18 12:02:07;;;;;;;110.35;55.47;;;4.10;99.90;;;;;;5076746;28;20025;-85
2022/12/18 12:04:43;;;;;;;72.60;33.83;;;4.10;99.90;;;;;;5076418;28;20036;-77
2022/12/18 12:07:15;;;;;;;58.95;28.65;;;4.10;99.90;;;;;;5076487;28;20112;-78
2022/12/18 12:10:08;;;;;;;68.50;33.67;;;4.00;99.90;;;;;;5076455;28;20044;-77
2022/12/18 12:13:02;;;;;;;71.88;35.90;;;4.20;99.90;;;;;;5076710;28;20021;-81
2022/12/18 12:16:01;;;;;;;73.05;37.05;;;4.20;99.90;;;;;;5074935;28;20020;-85
2022/12/18 12:18:49;;;;;;;134.75;61.40;;;4.10;99.90;;;;;;5074863;28;20398;-77
2022/12/18 12:21:59;;;;;;;105.85;52.17;;;4.10;99.90;;;;;;5075298;28;20060;-78
2022/12/18 12:25:02;;;;;;;74.45;36.22;;;4.00;99.90;;;;;;4997575;28;20034;-78
2022/12/18 12:27:39;;;;;;;82.90;40.33;;;3.90;99.90;;;;;;4971169;28;20037;-79
2022/12/18 12:30:08;;;;;;;91.13;41.45;;;3.90;99.90;;;;;;4991386;28;20054;-78
2022/12/18 12:32:49;;;;;;;66.78;32.28;;;3.90;99.90;;;;;;4975181;28;20030;-76
2022/12/18 12:35:34;;;;;;;77.15;38.15;;;4.00;99.90;;;;;;4980356;28;20034;-79
2022/12/18 12:38:07;;;;;;;74.43;34.60;;;4.00;99.90;;;;;;4992000;28;20037;-78
2022/12/18 12:40:37;;;;;;;77.50;37.50;;;3.90;99.90;;;;;;4992720;28;20045;-79
2022/12/18 12:43:41;;;;;;;67.90;34.55;;;3.90;99.90;;;;;;4994241;28;20081;-80
2022/12/18 12:46:10;;;;;;;84.57;39.05;;;3.70;99.90;;;;;;4988145;28;20038;-76
2022/12/18 12:48:54;;;;;;;87.28;41.03;;;3.60;99.90;;;;;;4994029;28;20029;-76
2022/12/18 12:51:35;;;;;;;75.43;36.47;;;3.60;99.90;;;;;;4993987;28;20026;-77
2022/12/18 12:54:05;;;;;;;91.93;40.97;;;3.60;99.90;;;;;;4976651;28;20031;-76
2022/12/18 12:56:59;;;;;;;120.30;52.05;;;3.50;99.90;;;;;;4962081;28;20117;-77
2022/12/18 12:59:42;;;;;;;84.82;38.63;;;3.50;99.90;;;;;;4987360;28;20040;-79
2022/12/18 13:02:28;;;;;;;98.72;44.05;;;3.50;99.90;;;;;;5065059;28;20077;-78
2022/12/18 13:05:18;;;;;;;80.55;36.85;;;3.70;99.90;;;;;;5075101;28;20057;-78
2022/12/18 13:07:51;;;;;;;77.13;36.05;;;3.80;99.90;;;;;;5073221;28;20420;-78